sensor_id;sensor_type;location;lat;lon;timestamp;P1;durP1;ratioP1;P2;durP2;ratioP2
62788;SDS011;66401;42.016;21.454;2023-04-25T00:01:33;17.17;;;9.20;;
62788;SDS011;66401;42.016;21.454;2023-04-25T00:04:01;12.40;;;8.80;;
62788;SDS011;66401;42.016;21.454;2023-04-25T00:06:27;11.27;;;8.63;;
62788;SDS011;66401;42.016;21.454;2023-04-25T00:08:55;16.90;;;9.87;;
62788;SDS011;66401;42.016;21.454;2023-04-25T00:11:22;14.73;;;10.17;;
62788;SDS011;66401;42.016;21.454;2023-04-25T00:13:47;13.40;;;8.57;;
62788;SDS011;66401;42.016;21.454;2023-04-25T00:16:14;13.60;;;9.10;;
62788;SDS011;66401;42.016;21.454;2023-04-25T00:18:43;14.13;;;8.33;;
62788;SDS011;66401;42.016;21.454;2023-04-25T00:21:08;15.97;;;9.17;;
62788;SDS011;66401;42.016;21.454;2023-04-25T00:23:34;13.80;;;9.37;;
62788;SDS011;66401;42.016;21.454;2023-04-25T00:26:03;15.80;;;9.97;;
62788;SDS011;66401;42.016;21.454;2023-04-25T00:28:29;17.37;;;11.70;;
62788;SDS011;66401;42.016;21.454;2023-04-25T00:30:55;17.70;;;11.67;;
62788;SDS011;66401;42.016;21.454;2023-04-25T00:33:20;18.07;;;12.30;;
62788;SDS011;66401;42.016;21.454;2023-04-25T00:35:46;23.67;;;12.40;;
62788;SDS011;66401;42.016;21.454;2023-04-25T00:38:12;21.43;;;13.43;;
62788;SDS011;66401;42.016;21.454;2023-04-25T00:40:37;26.00;;;17.50;;
62788;SDS011;66401;42.016;21.454;2023-04-25T00:43:03;35.37;;;21.50;;
62788;SDS011;66401;42.016;21.454;2023-04-25T00:45:29;35.67;;;20.73;;
62788;SDS011;66401;42.016;21.454;2023-04-25T00:47:55;27.30;;;16.47;;
62788;SDS011;66401;42.016;21.454;2023-04-25T00:50:21;27.07;;;18.90;;
62788;SDS011;66401;42.016;21.454;2023-04-25T00:52:47;27.40;;;17.00;;
62788;SDS011;66401;42.016;21.454;2023-04-25T00:55:13;19.60;;;12.40;;
62788;SDS011;66401;42.016;21.454;2023-04-25T00:57:40;17.37;;;11.93;;
62788;SDS011;66401;42.016;21.454;2023-04-25T01:00:07;19.27;;;12.60;;
62788;SDS011;66401;42.016;21.454;2023-04-25T01:02:35;15.27;;;10.43;;
62788;SDS011;66401;42.016;21.454;2023-04-25T01:05:01;14.87;;;10.23;;
62788;SDS011;66401;42.016;21.454;2023-04-25T01:07:27;12.73;;;9.83;;
62788;SDS011;66401;42.016;21.454;2023-04-25T01:09:53;11.87;;;8.73;;
62788;SDS011;66401;42.016;21.454;2023-04-25T01:12:19;11.93;;;8.77;;
62788;SDS011;66401;42.016;21.454;2023-04-25T01:14:44;13.87;;;8.40;;
62788;SDS011;66401;42.016;21.454;2023-04-25T01:17:11;11.43;;;10.00;;
62788;SDS011;66401;42.016;21.454;2023-04-25T01:19:37;12.97;;;10.17;;
62788;SDS011;66401;42.016;21.454;2023-04-25T01:22:02;12.40;;;9.77;;
62788;SDS011;66401;42.016;21.454;2023-04-25T01:24:29;12.63;;;9.67;;
62788;SDS011;66401;42.016;21.454;2023-04-25T01:26:56;15.00;;;10.00;;
62788;SDS011;66401;42.016;21.454;2023-04-25T01:29:23;12.53;;;9.83;;
62788;SDS011;66401;42.016;21.454;2023-04-25T01:31:49;15.53;;;9.83;;
62788;SDS011;66401;42.016;21.454;2023-04-25T01:34:17;12.73;;;9.73;;
62788;SDS011;66401;42.016;21.454;2023-04-25T01:36:43;15.20;;;9.73;;
62788;SDS011;66401;42.016;21.454;2023-04-25T01:39:09;13.23;;;9.73;;
62788;SDS011;66401;42.016;21.454;2023-04-25T01:41:35;13.80;;;9.53;;
62788;SDS011;66401;42.016;21.454;2023-04-25T01:44:00;15.23;;;9.00;;
62788;SDS011;66401;42.016;21.454;2023-04-25T01:46:26;14.83;;;10.20;;
62788;SDS011;66401;42.016;21.454;2023-04-25T01:48:53;15.93;;;11.27;;
62788;SDS011;66401;42.016;21.454;2023-04-25T01:51:18;18.37;;;12.47;;
62788;SDS011;66401;42.016;21.454;2023-04-25T01:53:44;14.53;;;10.40;;
62788;SDS011;66401;42.016;21.454;2023-04-25T01:56:10;17.73;;;11.00;;
62788;SDS011;66401;42.016;21.454;2023-04-25T01:58:35;19.50;;;12.13;;
62788;SDS011;66401;42.016;21.454;2023-04-25T02:01:01;19.57;;;12.83;;
62788;SDS011;66401;42.016;21.454;2023-04-25T02:03:26;21.50;;;11.23;;
62788;SDS011;66401;42.016;21.454;2023-04-25T02:05:52;21.57;;;13.30;;
62788;SDS011;66401;42.016;21.454;2023-04-25T02:08:18;23.93;;;15.47;;
62788;SDS011;66401;42.016;21.454;2023-04-25T02:10:43;24.83;;;14.97;;
62788;SDS011;66401;42.016;21.454;2023-04-25T02:13:09;27.73;;;18.07;;
62788;SDS011;66401;42.016;21.454;2023-04-25T02:15:37;35.87;;;20.20;;
62788;SDS011;66401;42.016;21.454;2023-04-25T02:18:03;38.33;;;22.53;;
62788;SDS011;66401;42.016;21.454;2023-04-25T02:20:29;35.60;;;21.80;;
62788;SDS011;66401;42.016;21.454;2023-04-25T02:22:55;30.23;;;17.13;;
62788;SDS011;66401;42.016;21.454;2023-04-25T02:25:21;25.97;;;16.53;;
62788;SDS011;66401;42.016;21.454;2023-04-25T02:27:47;27.33;;;16.17;;
62788;SDS011;66401;42.016;21.454;2023-04-25T02:30:13;25.80;;;15.60;;
62788;SDS011;66401;42.016;21.454;2023-04-25T02:32:39;23.60;;;13.57;;
62788;SDS011;66401;42.016;21.454;2023-04-25T02:35:05;26.43;;;15.10;;
62788;SDS011;66401;42.016;21.454;2023-04-25T02:37:32;18.87;;;12.93;;
62788;SDS011;66401;42.016;21.454;2023-04-25T02:39:58;28.93;;;16.83;;
62788;SDS011;66401;42.016;21.454;2023-04-25T02:42:24;27.37;;;16.17;;
62788;SDS011;66401;42.016;21.454;2023-04-25T02:44:49;20.63;;;13.47;;
62788;SDS011;66401;42.016;21.454;2023-04-25T02:47:15;19.17;;;11.73;;
62788;SDS011;66401;42.016;21.454;2023-04-25T02:49:41;18.23;;;11.00;;
62788;SDS011;66401;42.016;21.454;2023-04-25T02:52:06;16.67;;;11.23;;
62788;SDS011;66401;42.016;21.454;2023-04-25T02:54:32;23.00;;;11.13;;
62788;SDS011;66401;42.016;21.454;2023-04-25T02:56:57;15.73;;;10.93;;
62788;SDS011;66401;42.016;21.454;2023-04-25T02:59:23;19.67;;;11.10;;
62788;SDS011;66401;42.016;21.454;2023-04-25T03:01:48;16.83;;;10.83;;
62788;SDS011;66401;42.016;21.454;2023-04-25T03:04:14;16.43;;;10.77;;
62788;SDS011;66401;42.016;21.454;2023-04-25T03:06:40;13.83;;;10.23;;
62788;SDS011;66401;42.016;21.454;2023-04-25T03:09:05;17.00;;;10.53;;
62788;SDS011;66401;42.016;21.454;2023-04-25T03:11:31;12.43;;;9.97;;
62788;SDS011;66401;42.016;21.454;2023-04-25T03:13:57;13.33;;;10.67;;
62788;SDS011;66401;42.016;21.454;2023-04-25T03:16:22;19.23;;;11.87;;
62788;SDS011;66401;42.016;21.454;2023-04-25T03:18:48;17.03;;;11.57;;
62788;SDS011;66401;42.016;21.454;2023-04-25T03:21:15;17.87;;;11.13;;
62788;SDS011;66401;42.016;21.454;2023-04-25T03:23:43;17.53;;;11.57;;
62788;SDS011;66401;42.016;21.454;2023-04-25T03:26:09;16.10;;;10.50;;
62788;SDS011;66401;42.016;21.454;2023-04-25T03:28:35;15.37;;;10.77;;
62788;SDS011;66401;42.016;21.454;2023-04-25T03:31:00;15.20;;;10.37;;
62788;SDS011;66401;42.016;21.454;2023-04-25T03:33:26;14.97;;;10.17;;
62788;SDS011;66401;42.016;21.454;2023-04-25T03:35:51;17.90;;;11.87;;
62788;SDS011;66401;42.016;21.454;2023-04-25T03:38:17;17.43;;;11.17;;
62788;SDS011;66401;42.016;21.454;2023-04-25T03:40:42;17.33;;;11.20;;
62788;SDS011;66401;42.016;21.454;2023-04-25T03:43:08;19.17;;;12.23;;
62788;SDS011;66401;42.016;21.454;2023-04-25T03:45:33;17.97;;;11.97;;
62788;SDS011;66401;42.016;21.454;2023-04-25T03:47:59;19.57;;;12.20;;
62788;SDS011;66401;42.016;21.454;2023-04-25T03:50:25;20.50;;;12.17;;
62788;SDS011;66401;42.016;21.454;2023-04-25T03:52:50;20.00;;;12.67;;
62788;SDS011;66401;42.016;21.454;2023-04-25T03:55:16;21.77;;;13.40;;
62788;SDS011;66401;42.016;21.454;2023-04-25T03:57:41;20.00;;;11.73;;
62788;SDS011;66401;42.016;21.454;2023-04-25T04:00:07;16.90;;;11.60;;
62788;SDS011;66401;42.016;21.454;2023-04-25T04:02:33;21.47;;;13.37;;
62788;SDS011;66401;42.016;21.454;2023-04-25T04:05:00;22.33;;;14.00;;
62788;SDS011;66401;42.016;21.454;2023-04-25T04:07:25;17.20;;;11.40;;
62788;SDS011;66401;42.016;21.454;2023-04-25T04:09:51;19.00;;;12.40;;
62788;SDS011;66401;42.016;21.454;2023-04-25T04:12:16;19.80;;;11.90;;
62788;SDS011;66401;42.016;21.454;2023-04-25T04:14:42;26.97;;;14.33;;
62788;SDS011;66401;42.016;21.454;2023-04-25T04:17:07;20.63;;;14.07;;
62788;SDS011;66401;42.016;21.454;2023-04-25T04:19:33;29.40;;;16.30;;
62788;SDS011;66401;42.016;21.454;2023-04-25T04:21:58;30.20;;;16.23;;
62788;SDS011;66401;42.016;21.454;2023-04-25T04:24:24;28.30;;;16.87;;
62788;SDS011;66401;42.016;21.454;2023-04-25T04:26:49;23.97;;;15.53;;
62788;SDS011;66401;42.016;21.454;2023-04-25T04:29:15;25.57;;;16.43;;
62788;SDS011;66401;42.016;21.454;2023-04-25T04:31:47;30.03;;;16.73;;
62788;SDS011;66401;42.016;21.454;2023-04-25T04:34:13;25.97;;;16.57;;
62788;SDS011;66401;42.016;21.454;2023-04-25T04:36:39;23.40;;;14.57;;
62788;SDS011;66401;42.016;21.454;2023-04-25T04:39:05;22.83;;;14.00;;
62788;SDS011;66401;42.016;21.454;2023-04-25T04:41:31;21.07;;;14.10;;
62788;SDS011;66401;42.016;21.454;2023-04-25T04:43:57;22.27;;;14.60;;
62788;SDS011;66401;42.016;21.454;2023-04-25T04:46:22;25.07;;;15.20;;
62788;SDS011;66401;42.016;21.454;2023-04-25T04:48:49;23.90;;;15.33;;
62788;SDS011;66401;42.016;21.454;2023-04-25T04:51:16;21.40;;;14.00;;
62788;SDS011;66401;42.016;21.454;2023-04-25T04:53:41;23.37;;;14.10;;
62788;SDS011;66401;42.016;21.454;2023-04-25T04:56:07;18.60;;;12.23;;
62788;SDS011;66401;42.016;21.454;2023-04-25T04:58:32;15.43;;;10.87;;
62788;SDS011;66401;42.016;21.454;2023-04-25T05:00:58;13.70;;;10.00;;
62788;SDS011;66401;42.016;21.454;2023-04-25T05:03:23;18.73;;;10.17;;
62788;SDS011;66401;42.016;21.454;2023-04-25T05:05:49;16.87;;;9.53;;
62788;SDS011;66401;42.016;21.454;2023-04-25T05:08:14;13.97;;;7.63;;
62788;SDS011;66401;42.016;21.454;2023-04-25T05:10:40;19.07;;;8.13;;
62788;SDS011;66401;42.016;21.454;2023-04-25T05:13:06;13.67;;;7.73;;
62788;SDS011;66401;42.016;21.454;2023-04-25T05:15:32;18.67;;;7.33;;
62788;SDS011;66401;42.016;21.454;2023-04-25T05:17:57;21.47;;;7.47;;
62788;SDS011;66401;42.016;21.454;2023-04-25T05:20:23;20.27;;;8.60;;
62788;SDS011;66401;42.016;21.454;2023-04-25T05:22:48;12.50;;;7.53;;
62788;SDS011;66401;42.016;21.454;2023-04-25T05:25:14;16.60;;;7.73;;
62788;SDS011;66401;42.016;21.454;2023-04-25T05:27:39;12.63;;;7.43;;
62788;SDS011;66401;42.016;21.454;2023-04-25T05:30:05;13.03;;;7.90;;
62788;SDS011;66401;42.016;21.454;2023-04-25T05:32:31;10.30;;;7.73;;
62788;SDS011;66401;42.016;21.454;2023-04-25T05:34:57;12.60;;;7.57;;
62788;SDS011;66401;42.016;21.454;2023-04-25T05:37:22;18.90;;;8.63;;
62788;SDS011;66401;42.016;21.454;2023-04-25T05:39:48;21.17;;;9.73;;
62788;SDS011;66401;42.016;21.454;2023-04-25T05:42:13;19.33;;;11.20;;
62788;SDS011;66401;42.016;21.454;2023-04-25T05:44:39;16.90;;;10.13;;
62788;SDS011;66401;42.016;21.454;2023-04-25T05:47:04;17.87;;;9.57;;
62788;SDS011;66401;42.016;21.454;2023-04-25T05:49:30;27.53;;;14.23;;
62788;SDS011;66401;42.016;21.454;2023-04-25T05:51:55;35.37;;;18.93;;
62788;SDS011;66401;42.016;21.454;2023-04-25T05:54:21;34.73;;;21.63;;
62788;SDS011;66401;42.016;21.454;2023-04-25T05:56:46;47.13;;;25.43;;
62788;SDS011;66401;42.016;21.454;2023-04-25T05:59:12;42.50;;;26.53;;
62788;SDS011;66401;42.016;21.454;2023-04-25T06:01:37;46.17;;;24.20;;
62788;SDS011;66401;42.016;21.454;2023-04-25T06:04:03;37.10;;;24.03;;
62788;SDS011;66401;42.016;21.454;2023-04-25T06:06:28;35.03;;;22.03;;
62788;SDS011;66401;42.016;21.454;2023-04-25T06:08:54;41.17;;;22.73;;
62788;SDS011;66401;42.016;21.454;2023-04-25T06:11:20;27.23;;;17.00;;
62788;SDS011;66401;42.016;21.454;2023-04-25T06:13:46;27.40;;;16.70;;
62788;SDS011;66401;42.016;21.454;2023-04-25T06:16:11;28.00;;;16.17;;
62788;SDS011;66401;42.016;21.454;2023-04-25T06:18:37;28.60;;;16.77;;
62788;SDS011;66401;42.016;21.454;2023-04-25T06:21:02;37.60;;;19.53;;
62788;SDS011;66401;42.016;21.454;2023-04-25T06:23:28;29.33;;;16.57;;
62788;SDS011;66401;42.016;21.454;2023-04-25T06:25:53;31.17;;;19.30;;
62788;SDS011;66401;42.016;21.454;2023-04-25T06:28:19;28.83;;;17.53;;
62788;SDS011;66401;42.016;21.454;2023-04-25T06:30:46;31.03;;;17.73;;
62788;SDS011;66401;42.016;21.454;2023-04-25T06:33:12;30.40;;;17.10;;
62788;SDS011;66401;42.016;21.454;2023-04-25T06:35:38;25.67;;;15.53;;
62788;SDS011;66401;42.016;21.454;2023-04-25T06:38:03;30.43;;;16.83;;
62788;SDS011;66401;42.016;21.454;2023-04-25T06:40:29;27.80;;;16.00;;
62788;SDS011;66401;42.016;21.454;2023-04-25T06:42:54;26.03;;;14.63;;
62788;SDS011;66401;42.016;21.454;2023-04-25T06:45:20;23.90;;;15.43;;
62788;SDS011;66401;42.016;21.454;2023-04-25T06:47:45;26.63;;;15.37;;
62788;SDS011;66401;42.016;21.454;2023-04-25T06:50:11;26.07;;;15.63;;
62788;SDS011;66401;42.016;21.454;2023-04-25T06:52:36;27.03;;;16.67;;
62788;SDS011;66401;42.016;21.454;2023-04-25T06:55:02;27.47;;;16.40;;
62788;SDS011;66401;42.016;21.454;2023-04-25T06:57:29;32.00;;;17.17;;
62788;SDS011;66401;42.016;21.454;2023-04-25T06:59:54;31.20;;;17.37;;
62788;SDS011;66401;42.016;21.454;2023-04-25T07:02:19;27.83;;;16.07;;
62788;SDS011;66401;42.016;21.454;2023-04-25T07:04:47;28.50;;;16.10;;
62788;SDS011;66401;42.016;21.454;2023-04-25T07:07:13;24.47;;;15.13;;
62788;SDS011;66401;42.016;21.454;2023-04-25T07:09:38;25.07;;;15.17;;
62788;SDS011;66401;42.016;21.454;2023-04-25T07:12:04;28.00;;;15.33;;
62788;SDS011;66401;42.016;21.454;2023-04-25T07:14:29;27.90;;;14.93;;
62788;SDS011;66401;42.016;21.454;2023-04-25T07:16:55;28.97;;;15.80;;
62788;SDS011;66401;42.016;21.454;2023-04-25T07:19:22;27.53;;;15.43;;
62788;SDS011;66401;42.016;21.454;2023-04-25T07:21:49;25.40;;;14.57;;
62788;SDS011;66401;42.016;21.454;2023-04-25T07:24:14;23.63;;;14.83;;
62788;SDS011;66401;42.016;21.454;2023-04-25T07:26:40;26.97;;;14.93;;
62788;SDS011;66401;42.016;21.454;2023-04-25T07:29:05;22.17;;;14.53;;
62788;SDS011;66401;42.016;21.454;2023-04-25T07:31:31;20.73;;;11.63;;
62788;SDS011;66401;42.016;21.454;2023-04-25T07:33:56;21.60;;;13.30;;
62788;SDS011;66401;42.016;21.454;2023-04-25T07:36:22;22.33;;;12.33;;
62788;SDS011;66401;42.016;21.454;2023-04-25T07:38:47;20.83;;;12.17;;
62788;SDS011;66401;42.016;21.454;2023-04-25T07:41:13;21.13;;;12.60;;
62788;SDS011;66401;42.016;21.454;2023-04-25T07:43:38;19.37;;;12.17;;
62788;SDS011;66401;42.016;21.454;2023-04-25T07:46:04;15.57;;;10.60;;
62788;SDS011;66401;42.016;21.454;2023-04-25T07:48:30;19.20;;;10.00;;
62788;SDS011;66401;42.016;21.454;2023-04-25T07:50:55;14.87;;;7.20;;
62788;SDS011;66401;42.016;21.454;2023-04-25T07:53:20;17.43;;;10.97;;
62788;SDS011;66401;42.016;21.454;2023-04-25T07:55:47;19.50;;;8.00;;
62788;SDS011;66401;42.016;21.454;2023-04-25T07:58:13;13.27;;;8.90;;
62788;SDS011;66401;42.016;21.454;2023-04-25T08:00:40;8.93;;;6.13;;
62788;SDS011;66401;42.016;21.454;2023-04-25T08:03:06;9.93;;;7.40;;
62788;SDS011;66401;42.016;21.454;2023-04-25T08:05:32;14.07;;;7.00;;
62788;SDS011;66401;42.016;21.454;2023-04-25T08:07:58;13.10;;;7.00;;
62788;SDS011;66401;42.016;21.454;2023-04-25T08:10:24;9.30;;;6.80;;
62788;SDS011;66401;42.016;21.454;2023-04-25T08:12:49;12.47;;;6.63;;
62788;SDS011;66401;42.016;21.454;2023-04-25T08:15:15;9.70;;;6.87;;
62788;SDS011;66401;42.016;21.454;2023-04-25T08:17:41;10.83;;;7.30;;
62788;SDS011;66401;42.016;21.454;2023-04-25T08:20:06;10.60;;;6.37;;
62788;SDS011;66401;42.016;21.454;2023-04-25T08:22:32;12.63;;;6.60;;
62788;SDS011;66401;42.016;21.454;2023-04-25T08:24:57;9.33;;;6.13;;
62788;SDS011;66401;42.016;21.454;2023-04-25T08:27:23;9.70;;;5.77;;
62788;SDS011;66401;42.016;21.454;2023-04-25T08:29:48;12.27;;;7.03;;
62788;SDS011;66401;42.016;21.454;2023-04-25T08:32:15;9.57;;;7.03;;
62788;SDS011;66401;42.016;21.454;2023-04-25T08:34:40;9.60;;;6.40;;
62788;SDS011;66401;42.016;21.454;2023-04-25T08:37:07;10.40;;;7.00;;
62788;SDS011;66401;42.016;21.454;2023-04-25T08:39:34;9.93;;;6.40;;
62788;SDS011;66401;42.016;21.454;2023-04-25T08:42:04;8.33;;;6.90;;
62788;SDS011;66401;42.016;21.454;2023-04-25T08:44:34;11.90;;;7.40;;
62788;SDS011;66401;42.016;21.454;2023-04-25T08:47:03;8.83;;;6.57;;
62788;SDS011;66401;42.016;21.454;2023-04-25T08:49:33;10.67;;;7.30;;
62788;SDS011;66401;42.016;21.454;2023-04-25T08:52:00;8.60;;;6.60;;
62788;SDS011;66401;42.016;21.454;2023-04-25T08:54:28;7.83;;;6.03;;
62788;SDS011;66401;42.016;21.454;2023-04-25T08:56:56;10.43;;;6.07;;
62788;SDS011;66401;42.016;21.454;2023-04-25T08:59:25;9.80;;;7.33;;
62788;SDS011;66401;42.016;21.454;2023-04-25T09:01:51;9.23;;;6.50;;
62788;SDS011;66401;42.016;21.454;2023-04-25T09:04:17;10.40;;;6.70;;
62788;SDS011;66401;42.016;21.454;2023-04-25T09:06:45;9.70;;;6.63;;
62788;SDS011;66401;42.016;21.454;2023-04-25T09:09:11;10.77;;;7.77;;
62788;SDS011;66401;42.016;21.454;2023-04-25T09:11:37;9.23;;;6.90;;
62788;SDS011;66401;42.016;21.454;2023-04-25T09:14:15;10.37;;;7.60;;
62788;SDS011;66401;42.016;21.454;2023-04-25T09:16:57;7.93;;;6.60;;
62788;SDS011;66401;42.016;21.454;2023-04-25T09:19:31;9.57;;;7.20;;
62788;SDS011;66401;42.016;21.454;2023-04-25T09:22:00;10.30;;;7.00;;
62788;SDS011;66401;42.016;21.454;2023-04-25T09:24:32;11.23;;;7.20;;
62788;SDS011;66401;42.016;21.454;2023-04-25T09:27:09;8.67;;;6.70;;
62788;SDS011;66401;42.016;21.454;2023-04-25T09:29:36;9.50;;;6.33;;
62788;SDS011;66401;42.016;21.454;2023-04-25T09:34:41;5.20;;;4.70;;
62788;SDS011;66401;42.016;21.454;2023-04-25T09:37:10;4.70;;;3.50;;
62788;SDS011;66401;42.016;21.454;2023-04-25T09:39:36;5.47;;;4.10;;
62788;SDS011;66401;42.016;21.454;2023-04-25T09:42:03;7.27;;;4.57;;
62788;SDS011;66401;42.016;21.454;2023-04-25T09:44:29;6.07;;;3.63;;
62788;SDS011;66401;42.016;21.454;2023-04-25T09:46:55;5.23;;;3.63;;
62788;SDS011;66401;42.016;21.454;2023-04-25T09:49:21;2.90;;;2.70;;
62788;SDS011;66401;42.016;21.454;2023-04-25T09:51:58;3.47;;;3.17;;
62788;SDS011;66401;42.016;21.454;2023-04-25T09:54:25;3.47;;;3.17;;
62788;SDS011;66401;42.016;21.454;2023-04-25T09:56:52;3.90;;;3.00;;
62788;SDS011;66401;42.016;21.454;2023-04-25T09:59:21;3.53;;;3.13;;
62788;SDS011;66401;42.016;21.454;2023-04-25T10:01:48;4.20;;;3.67;;
62788;SDS011;66401;42.016;21.454;2023-04-25T10:04:19;4.93;;;3.13;;
62788;SDS011;66401;42.016;21.454;2023-04-25T10:06:48;6.97;;;4.33;;
62788;SDS011;66401;42.016;21.454;2023-04-25T10:09:16;4.50;;;3.40;;
62788;SDS011;66401;42.016;21.454;2023-04-25T10:11:44;6.00;;;4.03;;
62788;SDS011;66401;42.016;21.454;2023-04-25T10:14:13;5.53;;;3.53;;
62788;SDS011;66401;42.016;21.454;2023-04-25T10:16:39;4.60;;;4.07;;
62788;SDS011;66401;42.016;21.454;2023-04-25T10:19:06;7.50;;;4.17;;
62788;SDS011;66401;42.016;21.454;2023-04-25T10:21:32;7.00;;;4.17;;
62788;SDS011;66401;42.016;21.454;2023-04-25T10:24:01;4.63;;;4.10;;
62788;SDS011;66401;42.016;21.454;2023-04-25T10:26:27;7.53;;;4.13;;
62788;SDS011;66401;42.016;21.454;2023-04-25T10:28:57;7.57;;;3.77;;
62788;SDS011;66401;42.016;21.454;2023-04-25T10:31:25;5.30;;;3.53;;
62788;SDS011;66401;42.016;21.454;2023-04-25T10:33:51;4.77;;;2.73;;
62788;SDS011;66401;42.016;21.454;2023-04-25T10:36:18;4.20;;;3.13;;
62788;SDS011;66401;42.016;21.454;2023-04-25T10:38:49;3.23;;;2.77;;
62788;SDS011;66401;42.016;21.454;2023-04-25T10:41:21;4.47;;;2.97;;
62788;SDS011;66401;42.016;21.454;2023-04-25T10:43:48;5.83;;;2.70;;
62788;SDS011;66401;42.016;21.454;2023-04-25T10:48:55;6.43;;;2.53;;
62788;SDS011;66401;42.016;21.454;2023-04-25T10:51:22;8.83;;;2.40;;
62788;SDS011;66401;42.016;21.454;2023-04-25T10:56:20;4.30;;;2.63;;
62788;SDS011;66401;42.016;21.454;2023-04-25T10:58:47;3.27;;;2.50;;
62788;SDS011;66401;42.016;21.454;2023-04-25T11:01:13;2.93;;;2.67;;
62788;SDS011;66401;42.016;21.454;2023-04-25T11:03:42;2.33;;;2.13;;
62788;SDS011;66401;42.016;21.454;2023-04-25T11:06:12;4.60;;;2.40;;
62788;SDS011;66401;42.016;21.454;2023-04-25T11:08:56;6.53;;;2.80;;
62788;SDS011;66401;42.016;21.454;2023-04-25T11:11:22;2.93;;;2.40;;
62788;SDS011;66401;42.016;21.454;2023-04-25T11:13:49;2.13;;;1.93;;
62788;SDS011;66401;42.016;21.454;2023-04-25T11:16:15;2.17;;;1.97;;
62788;SDS011;66401;42.016;21.454;2023-04-25T11:18:42;2.67;;;2.30;;
62788;SDS011;66401;42.016;21.454;2023-04-25T11:21:08;1.27;;;1.00;;
62788;SDS011;66401;42.016;21.454;2023-04-25T11:23:34;1.60;;;1.10;;
62788;SDS011;66401;42.016;21.454;2023-04-25T11:25:59;2.87;;;0.70;;
62788;SDS011;66401;42.016;21.454;2023-04-25T11:28:26;1.07;;;0.50;;
62788;SDS011;66401;42.016;21.454;2023-04-25T11:30:52;1.73;;;0.77;;
62788;SDS011;66401;42.016;21.454;2023-04-25T11:33:17;2.67;;;0.73;;
62788;SDS011;66401;42.016;21.454;2023-04-25T11:35:47;0.70;;;0.70;;
62788;SDS011;66401;42.016;21.454;2023-04-25T11:38:13;3.07;;;0.80;;
62788;SDS011;66401;42.016;21.454;2023-04-25T11:40:39;3.10;;;0.90;;
62788;SDS011;66401;42.016;21.454;2023-04-25T11:43:05;3.40;;;0.60;;
62788;SDS011;66401;42.016;21.454;2023-04-25T11:45:30;1.53;;;0.70;;
62788;SDS011;66401;42.016;21.454;2023-04-25T11:47:56;1.20;;;0.60;;
62788;SDS011;66401;42.016;21.454;2023-04-25T11:50:21;1.63;;;0.80;;
62788;SDS011;66401;42.016;21.454;2023-04-25T11:52:47;2.17;;;0.80;;
62788;SDS011;66401;42.016;21.454;2023-04-25T11:55:14;1.83;;;0.63;;
62788;SDS011;66401;42.016;21.454;2023-04-25T11:57:44;1.67;;;0.90;;
62788;SDS011;66401;42.016;21.454;2023-04-25T12:02:42;2.13;;;0.60;;
62788;SDS011;66401;42.016;21.454;2023-04-25T12:05:09;0.60;;;0.60;;
62788;SDS011;66401;42.016;21.454;2023-04-25T12:07:36;2.47;;;0.50;;
62788;SDS011;66401;42.016;21.454;2023-04-25T12:10:09;0.63;;;0.63;;
62788;SDS011;66401;42.016;21.454;2023-04-25T12:12:41;1.17;;;0.53;;
62788;SDS011;66401;42.016;21.454;2023-04-25T12:15:11;1.40;;;0.70;;
62788;SDS011;66401;42.016;21.454;2023-04-25T12:17:47;1.07;;;0.30;;
62788;SDS011;66401;42.016;21.454;2023-04-25T12:20:20;0.50;;;0.50;;
62788;SDS011;66401;42.016;21.454;2023-04-25T12:22:49;0.63;;;0.60;;
62788;SDS011;66401;42.016;21.454;2023-04-25T12:25:34;2.10;;;0.70;;
62788;SDS011;66401;42.016;21.454;2023-04-25T12:28:23;0.50;;;0.50;;
62788;SDS011;66401;42.016;21.454;2023-04-25T12:33:22;0.40;;;0.40;;
62788;SDS011;66401;42.016;21.454;2023-04-25T12:35:48;0.50;;;0.40;;
62788;SDS011;66401;42.016;21.454;2023-04-25T12:40:51;1.73;;;0.70;;
62788;SDS011;66401;42.016;21.454;2023-04-25T12:43:17;0.90;;;0.60;;
62788;SDS011;66401;42.016;21.454;2023-04-25T12:45:49;3.57;;;0.80;;
62788;SDS011;66401;42.016;21.454;2023-04-25T12:48:16;2.93;;;0.63;;
62788;SDS011;66401;42.016;21.454;2023-04-25T12:50:42;1.47;;;0.67;;
62788;SDS011;66401;42.016;21.454;2023-04-25T12:53:07;0.70;;;0.60;;
62788;SDS011;66401;42.016;21.454;2023-04-25T12:55:33;0.70;;;0.70;;
62788;SDS011;66401;42.016;21.454;2023-04-25T12:57:58;0.93;;;0.83;;
62788;SDS011;66401;42.016;21.454;2023-04-25T13:00:24;0.80;;;0.80;;
62788;SDS011;66401;42.016;21.454;2023-04-25T13:02:49;1.67;;;0.90;;
62788;SDS011;66401;42.016;21.454;2023-04-25T13:05:15;1.70;;;0.70;;
62788;SDS011;66401;42.016;21.454;2023-04-25T13:07:40;2.80;;;0.70;;
62788;SDS011;66401;42.016;21.454;2023-04-25T13:10:06;0.60;;;0.60;;
62788;SDS011;66401;42.016;21.454;2023-04-25T13:12:32;2.73;;;0.93;;
62788;SDS011;66401;42.016;21.454;2023-04-25T13:14:58;2.10;;;0.80;;
62788;SDS011;66401;42.016;21.454;2023-04-25T13:17:23;1.80;;;0.60;;
62788;SDS011;66401;42.016;21.454;2023-04-25T13:19:49;1.77;;;0.80;;
62788;SDS011;66401;42.016;21.454;2023-04-25T13:22:15;1.10;;;0.83;;
62788;SDS011;66401;42.016;21.454;2023-04-25T13:24:41;1.77;;;1.10;;
62788;SDS011;66401;42.016;21.454;2023-04-25T13:27:07;5.63;;;0.80;;
62788;SDS011;66401;42.016;21.454;2023-04-25T13:29:33;2.13;;;0.90;;
62788;SDS011;66401;42.016;21.454;2023-04-25T13:32:01;0.70;;;0.60;;
62788;SDS011;66401;42.016;21.454;2023-04-25T13:34:27;0.73;;;0.50;;
62788;SDS011;66401;42.016;21.454;2023-04-25T13:36:54;1.07;;;0.83;;
62788;SDS011;66401;42.016;21.454;2023-04-25T13:39:19;1.50;;;0.80;;
62788;SDS011;66401;42.016;21.454;2023-04-25T13:41:45;2.10;;;0.97;;
62788;SDS011;66401;42.016;21.454;2023-04-25T13:44:10;2.40;;;0.93;;
62788;SDS011;66401;42.016;21.454;2023-04-25T13:46:36;0.70;;;0.63;;
62788;SDS011;66401;42.016;21.454;2023-04-25T13:49:02;1.27;;;0.80;;
62788;SDS011;66401;42.016;21.454;2023-04-25T13:51:31;2.40;;;0.90;;
62788;SDS011;66401;42.016;21.454;2023-04-25T13:53:56;1.17;;;1.00;;
62788;SDS011;66401;42.016;21.454;2023-04-25T13:56:22;0.80;;;0.70;;
62788;SDS011;66401;42.016;21.454;2023-04-25T13:58:49;0.80;;;0.80;;
62788;SDS011;66401;42.016;21.454;2023-04-25T14:01:16;2.20;;;1.00;;
62788;SDS011;66401;42.016;21.454;2023-04-25T14:03:41;1.20;;;1.10;;
62788;SDS011;66401;42.016;21.454;2023-04-25T14:06:07;1.27;;;0.93;;
62788;SDS011;66401;42.016;21.454;2023-04-25T14:08:33;2.63;;;1.20;;
62788;SDS011;66401;42.016;21.454;2023-04-25T14:10:59;1.13;;;0.73;;
62788;SDS011;66401;42.016;21.454;2023-04-25T14:13:24;1.27;;;0.90;;
62788;SDS011;66401;42.016;21.454;2023-04-25T14:15:50;1.37;;;1.00;;
62788;SDS011;66401;42.016;21.454;2023-04-25T14:18:16;1.00;;;0.90;;
62788;SDS011;66401;42.016;21.454;2023-04-25T14:20:42;1.00;;;0.90;;
62788;SDS011;66401;42.016;21.454;2023-04-25T14:23:07;2.50;;;0.80;;
62788;SDS011;66401;42.016;21.454;2023-04-25T14:25:33;0.80;;;0.80;;
62788;SDS011;66401;42.016;21.454;2023-04-25T14:27:58;2.37;;;1.07;;
62788;SDS011;66401;42.016;21.454;2023-04-25T14:30:24;1.53;;;1.00;;
62788;SDS011;66401;42.016;21.454;2023-04-25T14:32:49;2.93;;;1.00;;